Time;durP1;ratioP1;P1;durP2;ratioP2;P2;SDS_P1;SDS_P2;PMS_P1;PMS_P2;Temp;Humidity;BMP_temperature;BMP_pressure;BME280_temperature;BME280_humidity;BME280_pressure;Samples;Min_cycle;Max_cycle;Signal;HPM_P1;HPM_P2
2022/05/30 00:00:18;;;;;;;11.68;3.28;;;;;;;9.01;92.76;67775.38;5018015;28;20056;-87
2022/05/30 00:02:46;;;;;;;12.18;4.07;;;;;;;8.93;92.80;67768.38;5015476;28;20497;-90
2022/05/30 00:05:13;;;;;;;12.07;3.67;;;;;;;8.94;92.89;67766.84;5029814;28;20124;-88
2022/05/30 00:07:40;;;;;;;8.90;3.67;;;;;;;8.87;92.98;67758.94;5016902;28;20045;-88
2022/05/30 00:10:09;;;;;;;14.23;3.78;;;;;;;8.80;93.84;67751.56;5013200;28;20050;-88
2022/05/30 00:12:36;;;;;;;7.18;4.05;;;;;;;8.76;93.97;67750.25;5012913;28;20049;-89
2022/05/30 00:15:03;;;;;;;12.13;4.68;;;;;;;8.66;95.60;67738.94;5012199;28;20041;-87
2022/05/30 00:17:30;;;;;;;10.52;4.30;;;;;;;8.64;95.61;67734.00;5012754;28;20050;-88
2022/05/30 00:19:56;;;;;;;10.80;4.20;;;;;;;8.60;96.06;67729.47;5011249;28;20041;-88
2022/05/30 00:22:23;;;;;;;11.50;5.05;;;;;;;8.54;96.35;67722.66;5009127;28;20042;-88
2022/05/30 00:24:49;;;;;;;16.00;5.30;;;;;;;8.53;96.49;67721.53;5010233;28;20096;-88
2022/05/30 00:27:16;;;;;;;12.80;4.60;;;;;;;8.50;96.67;67721.34;5011025;28;20053;-88
2022/05/30 00:29:42;;;;;;;10.82;4.95;;;;;;;8.45;97.07;67717.78;5020717;28;20069;-87
2022/05/30 00:32:09;;;;;;;14.23;4.82;;;;;;;8.40;97.49;67706.81;5014737;28;20081;-88
2022/05/30 00:34:36;;;;;;;11.77;4.82;;;;;;;8.37;97.87;67703.94;5013020;28;20053;-91
2022/05/30 00:37:03;;;;;;;9.63;5.25;;;;;;;8.34;97.91;67703.78;5010619;28;20069;-87
2022/05/30 00:39:32;;;;;;;13.50;5.68;;;;;;;8.30;97.98;67701.91;5012288;28;20038;-88
2022/05/30 00:42:18;;;;;;;;;;;;;;;8.30;98.25;67699.25;5012496;28;20170;-88
2022/05/30 00:44:46;;;;;;;10.88;4.70;;;;;;;8.18;98.53;67685.66;5025657;28;19948;-90
2022/05/30 00:47:12;;;;;;;12.18;5.72;;;;;;;8.13;99.36;67677.34;5012063;28;20045;-87
2022/05/30 00:49:40;;;;;;;11.20;4.53;;;;;;;8.20;98.66;67684.69;5025570;28;20045;-89
2022/05/30 00:52:07;;;;;;;11.93;4.90;;;;;;;;;;5010458;28;20046;-88
2022/05/30 00:54:37;;;;;;;15.15;5.50;;;;;;;8.09;99.50;67673.38;5007560;28;20050;-88
2022/05/30 00:57:20;;;;;;;11.63;5.35;;;;;;;8.09;99.34;67675.47;5002012;28;20042;-88
2022/05/30 00:59:54;;;;;;;13.35;5.78;;;;;;;8.07;99.09;67673.75;5026128;28;20048;-87
2022/05/30 01:02:22;;;;;;;10.38;4.85;;;;;;;8.02;99.60;67665.44;5004118;28;20049;-87
2022/05/30 01:07:34;;;;;;;16.17;6.13;;;;;;;7.95;99.76;67656.97;5012243;28;20049;-89
2022/05/30 01:10:01;;;;;;;13.38;5.90;;;;;;;7.88;100.00;67650.19;5002274;28;20034;-88
2022/05/30 01:12:38;;;;;;;11.32;5.47;;;;;;;7.89;100.00;67650.72;5010920;28;20053;-88
2022/05/30 01:15:09;;;;;;;15.35;5.60;;;;;;;7.83;100.00;67647.16;5013853;28;20045;-88
2022/05/30 01:17:40;;;;;;;13.45;5.45;;;;;;;7.80;100.00;67641.13;5024407;28;20469;-88
2022/05/30 01:20:28;;;;;;;9.35;5.00;;;;;;;7.71;99.90;67633.56;4973152;28;20142;-88
2022/05/30 01:23:03;;;;;;;16.45;6.22;;;;;;;7.65;100.00;67624.13;4981841;28;20043;-88
2022/05/30 01:25:47;;;;;;;12.95;6.45;;;;;;;7.54;100.00;67614.91;4989332;28;20045;-88
2022/05/30 01:28:22;;;;;;;13.00;7.20;;;;;;;7.57;100.00;67620.38;4972518;28;20042;-89
2022/05/30 01:30:48;;;;;;;14.85;6.90;;;;;;;7.60;100.00;67619.03;4983083;28;20039;-88
2022/05/30 01:33:14;;;;;;;12.18;5.22;;;;;;;7.58;100.00;67618.84;4989407;28;20038;-87
2022/05/30 01:35:40;;;;;;;13.18;6.45;;;;;;;7.59;100.00;67620.53;4987342;28;20038;-88
2022/05/30 01:38:09;;;;;;;20.52;7.60;;;;;;;7.61;100.00;67614.31;4989204;28;20432;-88
2022/05/30 01:40:35;;;;;;;13.05;6.55;;;;;;;7.57;100.00;67615.06;4972090;28;20054;-87
2022/05/30 01:43:00;;;;;;;14.88;7.05;;;;;;;7.59;100.00;67617.88;4969662;28;20077;-87
2022/05/30 01:45:27;;;;;;;15.00;6.88;;;;;;;7.60;100.00;67621.13;5018264;28;20103;-88
2022/05/30 01:47:54;;;;;;;18.00;7.95;;;;;;;7.54;100.00;67612.25;5001487;28;20092;-88
2022/05/30 01:50:22;;;;;;;16.30;7.60;;;;;;;7.59;100.00;67622.63;5021031;28;20042;-89
2022/05/30 01:52:48;;;;;;;17.95;8.02;;;;;;;7.62;100.00;67620.72;5005245;28;20509;-88
2022/05/30 01:55:14;;;;;;;16.63;8.73;;;;;;;7.59;100.00;67617.88;5010351;28;20052;-90
2022/05/30 01:57:40;;;;;;;12.75;7.70;;;;;;;7.53;100.00;67615.84;5009318;28;20057;-90
2022/05/30 02:00:10;;;;;;;16.95;7.40;;;;;;;7.56;100.00;67614.50;4983142;28;20033;-89
2022/05/30 02:02:36;;;;;;;18.77;7.55;;;;;;;7.54;100.00;67611.66;5016962;28;20125;-89
2022/05/30 02:05:04;;;;;;;16.08;7.32;;;;;;;7.59;100.00;67617.88;5018165;28;20041;-87
2022/05/30 02:07:31;;;;;;;12.57;6.82;;;;;;;7.64;100.00;67625.63;4993624;28;20038;-88
2022/05/30 02:09:56;;;;;;;14.60;6.53;;;;;;;7.64;100.00;67623.00;4999239;28;20041;-88
2022/05/30 02:12:25;;;;;;;15.10;6.35;;;;;;;7.73;100.00;67632.63;5008520;28;20050;-88
2022/05/30 02:14:51;;;;;;;14.40;5.85;;;;;;;;;;5009968;28;20145;-88
2022/05/30 02:17:17;;;;;;;9.18;5.20;;;;;;;7.64;100.00;67626.19;5038822;28;20532;-87
2022/05/30 02:19:46;;;;;;;11.10;5.80;;;;;;;7.70;100.00;67629.78;4999834;28;20048;-89
2022/05/30 02:22:15;;;;;;;17.92;6.13;;;;;;;7.79;100.00;67642.06;4999228;28;20084;-87
2022/05/30 02:24:41;;;;;;;18.55;5.63;;;;;;;7.79;100.00;67642.63;4987761;28;20046;-88
2022/05/30 02:27:09;;;;;;;10.80;6.45;;;;;;;7.80;100.00;67641.13;5006648;28;20212;-89
2022/05/30 02:29:43;;;;;;;14.30;6.97;;;;;;;7.77;100.00;67642.44;4991986;28;20572;-89
2022/05/30 02:32:10;;;;;;;15.43;6.75;;;;;;;7.74;100.00;67633.75;4990177;28;20111;-88
2022/05/30 02:37:21;;;;;;;18.33;6.25;;;;;;;7.71;100.00;67633.00;4960637;28;20527;-88
2022/05/30 02:39:47;;;;;;;14.48;7.45;;;;;;;7.69;100.00;67628.66;4989643;28;20038;-91
2022/05/30 02:42:12;;;;;;;14.52;6.95;;;;;;;;;;4985942;28;20077;-87
2022/05/30 02:44:38;;;;;;;16.75;6.75;;;;;;;7.52;100.00;67609.97;4981191;28;20096;-88
2022/05/30 02:47:05;;;;;;;12.98;6.38;;;;;;;7.55;100.00;67612.81;4982201;28;20042;-87
2022/05/30 02:49:31;;;;;;;11.05;5.95;;;;;;;7.52;100.00;67609.41;5005269;28;20037;-87
2022/05/30 02:52:00;;;;;;;14.45;6.13;;;;;;;7.49;100.00;67606.03;4964868;28;20690;-88
2022/05/30 02:54:27;;;;;;;14.85;6.50;;;;;;;7.47;100.00;67607.53;4982653;28;20042;-88
2022/05/30 02:56:55;;;;;;;13.57;6.78;;;;;;;7.38;100.00;67599.44;4996214;28;20037;-89
2022/05/30 02:59:21;;;;;;;13.60;6.60;;;;;;;7.35;100.00;67591.31;4971132;28;20058;-90
2022/05/30 03:01:57;;;;;;;15.30;6.55;;;;;;;7.36;100.00;67594.50;4962886;28;20043;-88
2022/05/30 03:04:26;;;;;;;10.45;6.10;;;;;;;7.34;100.00;67589.63;4971376;28;20038;-87
2022/05/30 03:06:54;;;;;;;16.98;6.75;;;;;;;7.32;100.00;67587.91;4973995;28;20052;-88
2022/05/30 03:09:26;;;;;;;15.18;7.65;;;;;;;7.24;100.00;67581.50;4988093;28;20054;-88
2022/05/30 03:11:51;;;;;;;14.43;7.13;;;;;;;;;;4973878;28;20049;-88
2022/05/30 03:14:20;;;;;;;14.18;7.43;;;;;;;7.23;100.00;67588.31;4976750;28;20038;-88
2022/05/30 03:16:55;;;;;;;16.13;6.63;;;;;;;7.26;100.00;67583.75;4992296;28;20046;-88
2022/05/30 03:19:21;;;;;;;13.75;6.57;;;;;;;7.17;100.00;67574.16;4985016;28;20043;-88
2022/05/30 03:21:46;;;;;;;14.00;6.90;;;;;;;7.16;100.00;67570.38;5012183;28;20478;-89
2022/05/30 03:24:12;;;;;;;18.00;6.95;;;;;;;7.08;100.00;67561.31;5011316;28;20048;-88
2022/05/30 03:26:37;;;;;;;16.85;7.57;;;;;;;7.10;100.00;67568.28;5015396;28;20053;-88
2022/05/30 03:29:04;;;;;;;14.10;7.32;;;;;;;7.10;100.00;67563.00;5027583;28;20045;-87
2022/05/30 03:31:29;;;;;;;16.60;6.70;;;;;;;7.08;100.00;67563.38;4996090;28;20057;-89
2022/05/30 03:33:55;;;;;;;14.25;6.25;;;;;;;7.04;100.00;67561.50;5012018;28;20120;-88
2022/05/30 03:36:26;;;;;;;13.52;6.55;;;;;;;7.06;100.00;67563.78;5019148;28;20042;-90
2022/05/30 03:38:51;;;;;;;15.13;6.63;;;;;;;;;;5013029;28;20061;-89
2022/05/30 03:41:17;;;;;;;16.02;7.85;;;;;;;7.05;100.00;67563.22;5017064;28;20046;-88
2022/05/30 03:43:42;;;;;;;13.27;6.65;;;;;;;7.06;100.00;67561.69;5013632;28;20046;-88
2022/05/30 03:46:07;;;;;;;16.25;6.63;;;;;;;7.09;100.00;67561.88;5010270;28;20136;-89
2022/05/30 03:48:33;;;;;;;10.27;6.10;;;;;;;7.07;100.00;67559.59;5009060;28;20485;-88
2022/05/30 03:50:59;;;;;;;16.63;6.60;;;;;;;7.13;100.00;67569.03;5007559;28;20045;-88
2022/05/30 03:53:24;;;;;;;12.73;6.13;;;;;;;7.18;100.00;67574.72;5007961;28;20517;-89
2022/05/30 03:55:50;;;;;;;14.38;6.35;;;;;;;7.16;100.00;67570.38;5006898;28;20042;-88
2022/05/30 03:58:15;;;;;;;13.40;6.30;;;;;;;7.16;100.00;67572.44;5017078;28;20107;-89
2022/05/30 04:00:43;;;;;;;14.55;6.95;;;;;;;7.21;100.00;67578.09;5009939;28;20053;-89
2022/05/30 04:05:44;;;;;;;15.00;5.63;;;;;;;7.23;100.00;67580.94;5031237;23;20528;-82
2022/05/30 04:08:09;;;;;;;10.98;5.70;;;;;;;7.24;100.00;67579.41;5032136;28;20040;-85
2022/05/30 04:10:35;;;;;;;13.23;6.10;;;;;;;7.33;100.00;67589.03;5024820;28;20041;-83
2022/05/30 04:13:06;;;;;;;12.43;6.63;;;;;;;7.26;100.00;67580.56;5009824;28;20147;-84
2022/05/30 04:15:32;;;;;;;13.45;6.35;;;;;;;7.32;100.00;67587.91;5009434;28;20034;-82
2022/05/30 04:17:57;;;;;;;15.68;6.70;;;;;;;7.41;100.00;67603.38;5011356;28;20612;-81
2022/05/30 04:20:23;;;;;;;13.75;6.78;;;;;;;7.39;100.00;67595.25;5013766;28;20077;-82
2022/05/30 04:22:48;;;;;;;14.32;5.72;;;;;;;7.46;100.00;67605.84;5017902;28;20119;-83
2022/05/30 04:25:13;;;;;;;11.32;6.07;;;;;;;;;;5009718;28;20038;-82
2022/05/30 04:27:39;;;;;;;9.45;5.82;;;;;;;7.42;100.00;67601.28;5010413;28;20054;-84
2022/05/30 04:30:06;;;;;;;15.00;6.88;;;;;;;7.43;100.00;67600.34;5008226;28;20068;-86
2022/05/30 04:32:32;;;;;;;12.95;6.90;;;;;;;7.42;100.00;67601.88;5009715;28;20092;-83
2022/05/30 04:34:57;;;;;;;12.88;6.60;;;;;;;;;;5007838;28;20038;-83
2022/05/30 04:37:23;;;;;;;14.23;6.65;;;;;;;7.40;100.00;67596.97;5009095;28;20046;-86
2022/05/30 04:39:48;;;;;;;13.43;7.25;;;;;;;7.35;100.00;67593.94;5009810;28;20045;-84
2022/05/30 04:42:13;;;;;;;15.30;5.95;;;;;;;7.41;100.00;67600.16;5027967;28;20056;-85
2022/05/30 04:44:39;;;;;;;11.27;5.95;;;;;;;7.36;100.00;67595.06;5029905;28;20498;-85
2022/05/30 04:47:05;;;;;;;14.90;6.07;;;;;;;;;;5021567;28;20042;-83
2022/05/30 04:49:31;;;;;;;11.80;5.40;;;;;;;7.57;100.00;67615.63;5026928;28;20079;-85
2022/05/30 04:51:56;;;;;;;11.18;5.28;;;;;;;7.58;100.00;67618.84;5002179;28;20034;-83
2022/05/30 04:54:22;;;;;;;12.30;5.07;;;;;;;7.72;100.00;67632.06;5012182;28;20062;-83
2022/05/30 04:56:48;;;;;;;13.07;5.07;;;;;;;7.75;100.00;67635.44;5011002;28;20037;-84
2022/05/30 04:59:13;;;;;;;11.55;5.88;;;;;;;7.81;100.00;67641.69;5010857;28;20049;-84
2022/05/30 05:01:39;;;;;;;11.65;4.22;;;;;;;;;;5006415;28;20042;-85
2022/05/30 05:04:06;;;;;;;13.82;4.93;;;;;;;8.02;100.00;67667.53;5012642;28;20085;-84
2022/05/30 05:06:32;;;;;;;14.38;5.32;;;;;;;8.15;99.81;67679.59;5011038;28;20064;-83
2022/05/30 05:09:04;;;;;;;11.98;4.50;;;;;;;8.21;99.29;67691.72;5011704;28;20042;-84
2022/05/30 05:11:32;;;;;;;10.88;4.70;;;;;;;8.25;98.29;67690.38;5009932;28;20048;-85
2022/05/30 05:13:58;;;;;;;12.20;4.30;;;;;;;8.34;97.88;67703.78;5011591;28;20033;-83
2022/05/30 05:16:25;;;;;;;9.45;4.22;;;;;;;;;;5013385;28;20049;-84
2022/05/30 05:18:50;;;;;;;14.93;4.80;;;;;;;;;;5012796;28;20060;-87
2022/05/30 05:21:17;;;;;;;10.60;4.80;;;;;;;;;;5013985;28;20042;-83
2022/05/30 05:23:42;;;;;;;9.82;4.68;;;;;;;8.65;96.63;67737.22;5002348;28;20100;-85
2022/05/30 05:26:08;;;;;;;9.75;4.70;;;;;;;8.58;96.60;67729.84;5013970;28;20038;-84
2022/05/30 05:28:34;;;;;;;8.80;3.90;;;;;;;;;;5020474;28;20080;-84
2022/05/30 05:31:00;;;;;;;10.80;4.60;;;;;;;8.65;95.00;67735.13;5029126;28;20045;-85
2022/05/30 05:33:25;;;;;;;9.90;5.30;;;;;;;8.78;95.62;67749.31;5018299;28;20530;-86
2022/05/30 05:35:50;;;;;;;12.75;4.05;;;;;;;8.71;93.79;67741.34;5025157;28;20068;-84
2022/05/30 05:38:16;;;;;;;10.90;3.90;;;;;;;8.74;93.47;67745.31;5006326;28;20053;-84
2022/05/30 05:40:43;;;;;;;14.20;4.70;;;;;;;8.75;94.81;67746.47;5025849;28;20061;-86
2022/05/30 05:43:09;;;;;;;10.70;4.47;;;;;;;;;;5009571;28;20093;-84
2022/05/30 05:45:39;;;;;;;10.85;4.15;;;;;;;8.90;94.48;67757.03;5008557;28;20034;-83
2022/05/30 05:48:05;;;;;;;10.35;4.45;;;;;;;;;;5025512;28;20042;-83
2022/05/30 05:50:30;;;;;;;12.73;4.50;;;;;;;;;;5004164;28;20054;-83
2022/05/30 05:52:56;;;;;;;9.85;5.00;;;;;;;9.04;94.38;67778.19;5008753;28;20400;-84
2022/05/30 05:55:22;;;;;;;12.68;4.18;;;;;;;9.10;93.45;67787.66;5007297;28;20046;-82
2022/05/30 05:57:47;;;;;;;12.60;4.85;;;;;;;;;;4994570;28;20038;-83
2022/05/30 06:00:13;;;;;;;12.05;4.47;;;;;;;9.16;94.00;67794.44;5007353;28;20045;-84
2022/05/30 06:02:39;;;;;;;12.32;4.25;;;;;;;;;;5009620;28;20045;-83
2022/05/30 06:05:05;;;;;;;12.27;4.32;;;;;;;9.36;92.68;67813.34;5008809;28;20405;-84
2022/05/30 06:07:33;;;;;;;8.75;3.75;;;;;;;9.38;92.14;67818.25;5011362;28;20501;-85
2022/05/30 06:09:58;;;;;;;9.25;3.70;;;;;;;;;;5000021;28;20031;-85
2022/05/30 06:12:23;;;;;;;9.02;3.50;;;;;;;9.43;90.78;67823.91;5009893;28;20053;-83
2022/05/30 06:14:48;;;;;;;9.23;3.60;;;;;;;;;;5009448;28;20088;-84
2022/05/30 06:17:14;;;;;;;8.25;2.97;;;;;;;9.47;89.52;67828.47;5003654;28;20104;-82
2022/05/30 06:19:39;;;;;;;10.48;3.60;;;;;;;9.55;89.18;67837.53;5009578;28;20042;-85
2022/05/30 06:22:04;;;;;;;7.03;2.80;;;;;;;9.63;88.98;67849.25;5008083;28;20042;-84
2022/05/30 06:24:30;;;;;;;11.25;2.75;;;;;;;9.65;89.08;67846.22;5025255;28;20042;-84
2022/05/30 06:26:55;;;;;;;11.60;3.50;;;;;;;9.63;88.09;67846.59;5007486;28;20425;-84
2022/05/30 06:29:21;;;;;;;7.80;3.10;;;;;;;9.57;89.00;67837.13;5009545;28;20068;-84
2022/05/30 06:31:46;;;;;;;8.43;3.10;;;;;;;9.60;87.70;67845.84;5008811;28;20128;-83
2022/05/30 06:34:12;;;;;;;8.63;2.67;;;;;;;;;;5010063;28;20038;-84
2022/05/30 06:36:40;;;;;;;6.55;2.13;;;;;;;9.77;86.83;67858.69;5014655;28;20038;-85
2022/05/30 06:39:06;;;;;;;8.05;3.30;;;;;;;;;;5008383;28;20041;-85
2022/05/30 06:41:31;;;;;;;9.57;2.92;;;;;;;;;;5013871;28;20102;-83
2022/05/30 06:44:02;;;;;;;6.00;2.35;;;;;;;9.84;86.54;67866.63;5007676;28;20041;-84
2022/05/30 06:46:27;;;;;;;8.98;2.58;;;;;;;9.75;86.19;67856.97;5009061;28;20041;-84
2022/05/30 06:48:55;;;;;;;8.50;2.60;;;;;;;9.76;86.32;67860.22;5008001;28;20052;-83
2022/05/30 06:51:21;;;;;;;7.38;2.55;;;;;;;9.91;86.55;67869.81;5005962;28;20053;-84
2022/05/30 06:53:46;;;;;;;5.88;1.50;;;;;;;10.05;84.38;67890.44;5009135;28;20042;-84
2022/05/30 06:56:16;;;;;;;4.97;2.08;;;;;;;;;;5007151;28;20053;-83
2022/05/30 06:58:43;;;;;;;7.18;2.08;;;;;;;;;;5008473;28;20370;-83
2022/05/30 07:01:09;;;;;;;7.53;1.75;;;;;;;10.22;82.73;67909.16;5011074;28;20528;-84
2022/05/30 07:03:35;;;;;;;7.03;2.03;;;;;;;10.26;82.81;67916.34;5012678;28;20050;-84
2022/05/30 07:06:04;;;;;;;7.22;2.20;;;;;;;;;;5008716;28;20029;-83
2022/05/30 07:08:29;;;;;;;8.60;2.00;;;;;;;10.36;82.46;67919.75;5008760;28;20046;-83
2022/05/30 07:10:55;;;;;;;4.85;1.75;;;;;;;;;;5023562;28;20093;-83
2022/05/30 07:13:20;;;;;;;5.78;1.75;;;;;;;10.47;81.44;67931.66;5008717;28;20527;-84
2022/05/30 07:15:48;;;;;;;6.90;1.90;;;;;;;10.69;80.65;67966.69;5008998;28;20529;-83
2022/05/30 07:18:15;;;;;;;8.88;2.05;;;;;;;10.80;79.65;67973.31;5009589;28;20517;-84
2022/05/30 07:20:41;;;;;;;7.45;2.17;;;;;;;10.80;79.94;67973.31;5008448;28;20054;-83
2022/05/30 07:23:07;;;;;;;4.88;1.70;;;;;;;10.82;78.42;67975.56;5009751;28;20431;-83
2022/05/30 07:25:38;;;;;;;7.32;1.55;;;;;;;10.90;78.24;67984.06;5010585;28;20045;-85
2022/05/30 07:28:05;;;;;;;6.45;1.98;;;;;;;10.91;77.15;67985.78;5008885;28;20048;-84
2022/05/30 07:30:30;;;;;;;6.60;1.33;;;;;;;;;;5009796;28;20046;-84
2022/05/30 07:32:56;;;;;;;5.03;1.45;;;;;;;10.94;77.86;67989.19;5010054;28;20057;-85
2022/05/30 07:35:22;;;;;;;4.80;1.15;;;;;;;11.02;76.54;67998.28;5011844;28;20478;-83
2022/05/30 07:37:49;;;;;;;3.63;0.95;;;;;;;11.19;74.79;68016.44;5010345;28;20497;-85
2022/05/30 07:40:15;;;;;;;5.78;1.15;;;;;;;;;;5011143;28;20096;-83
2022/05/30 07:42:41;;;;;;;6.78;1.30;;;;;;;;;;5008416;28;20033;-85
2022/05/30 07:45:08;;;;;;;3.22;1.00;;;;;;;11.20;71.25;68012.81;5010850;28;20041;-86
2022/05/30 07:47:33;;;;;;;4.50;1.10;;;;;;;11.19;72.62;68017.00;5011061;28;20041;-86
2022/05/30 07:50:02;;;;;;;4.85;1.02;;;;;;;11.20;72.68;68018.13;5012379;28;20420;-83
2022/05/30 07:52:28;;;;;;;4.20;1.20;;;;;;;;;;5013163;28;20038;-83
2022/05/30 07:54:53;;;;;;;4.70;1.35;;;;;;;11.25;72.81;68023.81;5027179;28;20045;-84
2022/05/30 07:57:18;;;;;;;5.85;1.40;;;;;;;11.36;72.17;68029.84;5010782;28;20111;-85
2022/05/30 07:59:44;;;;;;;2.92;1.10;;;;;;;11.47;71.58;68050.88;5014648;28;20042;-83
2022/05/30 08:02:09;;;;;;;5.05;1.20;;;;;;;11.58;71.27;68060.16;5009218;28;20038;-85
2022/05/30 08:04:36;;;;;;;3.13;1.15;;;;;;;11.57;70.88;68058.47;5013111;28;20512;-83
2022/05/30 08:07:04;;;;;;;3.42;1.00;;;;;;;11.47;70.46;68053.56;5006444;28;20041;-84
2022/05/30 08:09:29;;;;;;;4.80;0.95;;;;;;;11.49;69.86;68052.59;5013853;28;20045;-83
2022/05/30 08:11:54;;;;;;;3.80;1.40;;;;;;;;;;5028215;28;20042;-83
2022/05/30 08:14:20;;;;;;;5.00;0.80;;;;;;;11.77;68.19;68075.84;5014137;28;20042;-84
2022/05/30 08:16:46;;;;;;;2.50;0.73;;;;;;;12.08;68.95;68115.84;5009827;28;20348;-83
2022/05/30 08:19:11;;;;;;;4.32;0.90;;;;;;;;;;5013333;28;20062;-84
2022/05/30 08:21:36;;;;;;;2.15;0.75;;;;;;;;;;5003954;28;20041;-84
2022/05/30 08:24:01;;;;;;;6.25;0.80;;;;;;;;;;4995065;28;20045;-84
2022/05/30 08:26:27;;;;;;;4.28;0.93;;;;;;;;;;5012831;28;20120;-84
2022/05/30 08:28:52;;;;;;;3.55;0.70;;;;;;;12.44;66.05;68158.28;5013031;28;20045;-83
2022/05/30 08:31:17;;;;;;;2.75;0.95;;;;;;;12.30;65.94;68140.28;5011823;28;20429;-84
2022/05/30 08:33:43;;;;;;;4.28;1.00;;;;;;;12.23;64.84;68137.66;4992555;28;20386;-83
2022/05/30 08:36:10;;;;;;;3.30;1.23;;;;;;;;;;5010618;28;20425;-82
2022/05/30 08:38:37;;;;;;;3.15;1.35;;;;;;;12.58;65.91;68171.53;5013123;28;20052;-84
2022/05/30 08:43:49;;;;;;;5.57;1.48;;;;;;;12.45;68.66;68150.84;5012475;28;20053;-83
2022/05/30 08:46:33;;;;;;;5.15;1.63;;;;;;;;;;5031380;28;20040;-83
2022/05/30 08:49:13;;;;;;;4.07;1.08;;;;;;;12.36;68.01;68147.09;5013569;28;20044;-84
2022/05/30 08:52:07;;;;;;;4.90;1.23;;;;;;;12.28;68.29;68138.00;5030857;28;20057;-83
2022/05/30 08:54:50;;;;;;;2.78;1.10;;;;;;;;;;5030111;28;20037;-84
2022/05/30 08:57:33;;;;;;;4.78;1.00;;;;;;;12.09;68.74;68116.97;5031560;28;20041;-83
2022/05/30 09:00:02;;;;;;;2.95;0.98;;;;;;;;;;5029925;28;20045;-84
2022/05/30 09:02:30;;;;;;;5.13;1.40;;;;;;;12.02;68.20;68103.69;5013475;28;20140;-84
2022/05/30 09:05:03;;;;;;;5.75;1.23;;;;;;;;;;5033189;28;20121;-82
2022/05/30 09:07:35;;;;;;;8.98;1.33;;;;;;;12.06;68.08;68113.56;5034633;28;20041;-83
2022/05/30 09:10:17;;;;;;;3.97;0.90;;;;;;;;;;5030821;28;20113;-83
2022/05/30 09:12:52;;;;;;;4.30;1.20;;;;;;;12.12;68.80;68119.81;5029915;28;20046;-83
2022/05/30 09:15:22;;;;;;;3.80;1.30;;;;;;;12.07;69.36;68114.13;5018449;28;20042;-83
2022/05/30 09:17:47;;;;;;;8.35;1.90;;;;;;;;;;5010713;28;20096;-83
2022/05/30 09:20:18;;;;;;;5.67;1.50;;;;;;;12.06;69.61;68113.56;5014101;28;20045;-83
2022/05/30 09:22:43;;;;;;;5.22;1.40;;;;;;;;;;5016477;28;20621;-83
2022/05/30 09:27:56;;;;;;;2.85;1.10;;;;;;;12.18;68.81;68126.63;5019182;28;20060;-85
2022/05/30 09:30:45;;;;;;;5.18;1.30;;;;;;;12.26;68.56;68130.41;5019356;28;20120;-82
2022/05/30 09:33:27;;;;;;;5.45;1.23;;;;;;;12.26;68.18;68135.72;4990088;28;20038;-84
2022/05/30 09:36:09;;;;;;;3.15;1.35;;;;;;;;;;5010493;28;20497;-83
2022/05/30 09:38:45;;;;;;;3.45;0.95;;;;;;;12.30;65.64;68134.94;4992216;28;20791;-83
2022/05/30 09:41:17;;;;;;;4.30;1.42;;;;;;;;;;5010337;28;20149;-83
2022/05/30 09:43:43;;;;;;;4.55;1.13;;;;;;;;;;5010621;28;20121;-83
2022/05/30 09:46:20;;;;;;;4.67;1.17;;;;;;;12.41;67.12;68146.88;5010903;28;20133;-84
2022/05/30 09:49:01;;;;;;;3.63;1.00;;;;;;;12.52;63.76;68164.16;5026000;28;20320;-83
2022/05/30 09:51:51;;;;;;;4.63;1.17;;;;;;;12.40;63.84;68146.31;5009694;28;20045;-82
2022/05/30 09:54:28;;;;;;;3.97;1.08;;;;;;;12.68;64.84;68176.97;5000530;28;20125;-83
2022/05/30 09:56:57;;;;;;;3.78;1.20;;;;;;;12.74;64.98;68183.22;5009623;28;20042;-81
2022/05/30 09:59:34;;;;;;;2.83;0.95;;;;;;;12.82;64.62;68192.34;5027667;28;20042;-83
2022/05/30 10:02:00;;;;;;;4.65;1.58;;;;;;;;;;4992806;28;20045;-83
2022/05/30 10:04:35;;;;;;;4.88;1.20;;;;;;;12.72;64.79;68178.88;5010564;28;20490;-82
2022/05/30 10:07:06;;;;;;;3.90;1.02;;;;;;;;;;5023017;28;20100;-84
2022/05/30 10:09:35;;;;;;;4.28;1.00;;;;;;;12.74;64.87;68183.22;5011057;28;20036;-84
2022/05/30 10:12:01;;;;;;;4.05;1.33;;;;;;;12.87;64.25;68198.59;5008594;28;20041;-84
2022/05/30 10:14:32;;;;;;;1.75;0.80;;;;;;;;;;5011669;28;20046;-83
2022/05/30 10:17:10;;;;;;;2.05;0.68;;;;;;;12.63;61.86;68177.22;4992405;28;20588;-83
2022/05/30 10:19:40;;;;;;;2.97;1.00;;;;;;;12.60;61.82;68167.88;4996844;28;20133;-83
2022/05/30 10:28:33;;;;;;;5.82;1.17;;;;;;;13.32;64.31;68248.66;5004805;28;20044;-83
2022/05/30 10:30:58;;;;;;;2.45;0.80;;;;;;;;;;5011274;28;20045;-83
2022/05/30 10:33:37;;;;;;;1.43;0.73;;;;;;;;;;5011785;28;20057;-83
2022/05/30 10:36:17;;;;;;;7.28;0.95;;;;;;;;;;5011065;28;20299;-83
2022/05/30 10:39:01;;;;;;;4.28;0.90;;;;;;;13.75;61.19;68301.78;5011646;28;20519;-83
2022/05/30 10:41:42;;;;;;;2.75;0.82;;;;;;;14.00;58.34;68329.06;5018513;28;20048;-83
2022/05/30 10:44:09;;;;;;;1.58;0.77;;;;;;;;;;5013236;28;20061;-83
2022/05/30 10:47:02;;;;;;;4.22;0.90;;;;;;;13.84;58.94;68310.84;5012884;28;20081;-83
2022/05/30 10:49:35;;;;;;;2.22;0.90;;;;;;;14.20;58.54;68351.25;4975052;28;20101;-83
2022/05/30 10:52:20;;;;;;;2.53;0.85;;;;;;;14.13;58.01;68343.31;5016417;28;20052;-83
2022/05/30 10:54:56;;;;;;;2.53;1.13;;;;;;;14.19;59.45;68345.34;5025602;28;20037;-83
2022/05/30 10:57:21;;;;;;;4.45;1.08;;;;;;;;;;5023407;28;20136;-83
2022/05/30 11:00:02;;;;;;;4.77;0.90;;;;;;;14.00;59.32;68323.72;5010849;28;20160;-83
2022/05/30 11:02:39;;;;;;;1.63;0.88;;;;;;;13.99;58.93;68323.16;5028194;28;20841;-83
2022/05/30 11:05:14;;;;;;;4.95;1.10;;;;;;;13.81;61.08;68302.09;5018136;28;20048;-83
2022/05/30 11:08:02;;;;;;;4.85;1.15;;;;;;;13.82;60.71;68308.59;5029147;28;20256;-83
2022/05/30 11:10:40;;;;;;;1.98;0.68;;;;;;;13.92;58.08;68314.59;5022844;28;20045;-83
2022/05/30 11:13:08;;;;;;;3.42;0.63;;;;;;;13.98;58.56;68321.44;5009642;28;20741;-83
2022/05/30 11:15:45;;;;;;;2.75;0.63;;;;;;;13.82;58.50;68303.25;5023143;28;20094;-83
2022/05/30 11:18:25;;;;;;;2.38;0.80;;;;;;;13.90;57.25;68317.69;5027122;28;20041;-83
2022/05/30 11:20:50;;;;;;;2.45;0.60;;;;;;;;;;5011702;28;20125;-83
2022/05/30 11:23:15;;;;;;;2.57;0.70;;;;;;;;;;5007591;28;20180;-83
2022/05/30 11:25:49;;;;;;;3.05;0.57;;;;;;;;;;5009574;28;20053;-83
2022/05/30 11:28:25;;;;;;;0.85;0.50;;;;;;;14.09;58.52;68333.38;5012773;28;20637;-83
2022/05/30 11:31:00;;;;;;;1.92;0.88;;;;;;;13.98;56.03;68332.13;5013449;28;20042;-83
2022/05/30 11:34:05;;;;;;;1.83;1.00;;;;;;;14.04;59.71;68333.63;5011758;28;20049;-83
2022/05/30 11:36:52;;;;;;;1.00;0.70;;;;;;;14.16;57.98;68347.28;4995432;28;20054;-83
2022/05/30 11:39:37;;;;;;;1.42;0.70;;;;;;;;;;5012804;28;20034;-83
2022/05/30 11:42:08;;;;;;;3.03;0.70;;;;;;;14.19;59.65;68350.13;5009081;28;20030;-83
2022/05/30 11:44:34;;;;;;;2.20;1.05;;;;;;;14.23;59.02;68355.25;5010430;28;20568;-83
2022/05/30 11:47:20;;;;;;;3.50;1.10;;;;;;;14.30;57.45;68356.72;5011379;28;20082;-83
2022/05/30 11:50:21;;;;;;;3.03;0.73;;;;;;;14.23;58.90;68349.88;5013428;28;20046;-83
2022/05/30 11:52:46;;;;;;;1.90;0.98;;;;;;;;;;4966346;28;20044;-84
2022/05/30 11:55:31;;;;;;;5.20;1.30;;;;;;;14.19;59.54;68345.34;4986248;28;20045;-85
2022/05/30 11:58:01;;;;;;;3.15;1.23;;;;;;;;;;5008775;28;20053;-84
2022/05/30 12:00:42;;;;;;;3.72;0.95;;;;;;;14.20;58.64;68346.47;4993466;28;20553;-84
2022/05/30 12:03:25;;;;;;;2.65;1.00;;;;;;;;;;4991878;28;20052;-84
2022/05/30 12:06:18;;;;;;;1.42;1.00;;;;;;;14.17;58.01;68347.84;4994446;28;20042;-84
2022/05/30 12:09:05;;;;;;;2.50;1.27;;;;;;;13.97;58.20;68326.22;5007780;28;20039;-84
2022/05/30 12:11:33;;;;;;;1.73;0.88;;;;;;;;;;5005416;28;20066;-85
2022/05/30 12:13:58;;;;;;;5.05;1.35;;;;;;;14.29;58.27;68355.59;5023614;28;20045;-84
2022/05/30 12:16:43;;;;;;;1.77;1.10;;;;;;;14.41;57.29;68369.22;5013230;28;20041;-85
2022/05/30 12:24:53;;;;;;;1.80;0.80;;;;;;;14.60;57.33;68390.88;5014720;28;20425;-84
2022/05/30 12:27:28;;;;;;;1.88;0.88;;;;;;;14.63;56.08;68391.63;5013844;28;20050;-84
2022/05/30 12:29:54;;;;;;;1.45;0.70;;;;;;;14.94;55.17;68427.91;5012868;28;20046;-84
2022/05/30 12:32:23;;;;;;;1.83;0.70;;;;;;;;;;5014098;28;20076;-84
2022/05/30 12:34:58;;;;;;;1.13;0.50;;;;;;;14.61;50.99;68392.03;5013175;28;20050;-84
2022/05/30 12:37:41;;;;;;;2.47;0.63;;;;;;;14.72;54.34;68403.41;5010363;28;20100;-84
2022/05/30 12:40:19;;;;;;;2.17;0.75;;;;;;;14.65;52.58;68396.59;5027748;28;20065;-84
2022/05/30 12:42:45;;;;;;;4.07;1.00;;;;;;;14.72;51.78;68403.41;5011389;28;20046;-84